createdAt,value
2023-04-06T00:01:42.868Z,100.00
2023-04-06T00:04:11.293Z,100.00
2023-04-06T00:06:39.546Z,100.00
2023-04-06T00:09:08.683Z,100.00
2023-04-06T00:11:37.076Z,100.00
2023-04-06T00:14:21.808Z,100.00
2023-04-06T00:16:51.731Z,100.00
2023-04-06T00:19:19.936Z,100.00
2023-04-06T00:21:48.325Z,100.00
2023-04-06T00:24:17.043Z,100.00
2023-04-06T00:26:45.427Z,100.00
2023-04-06T00:29:13.609Z,100.00
2023-04-06T00:31:41.896Z,100.00
2023-04-06T00:34:12.458Z,100.00
2023-04-06T00:36:41.887Z,100.00
2023-04-06T00:39:10.362Z,100.00
2023-04-06T00:41:38.880Z,100.00
2023-04-06T00:44:07.583Z,100.00
2023-04-06T00:46:35.892Z,100.00
2023-04-06T00:49:05.970Z,100.00
2023-04-06T00:51:35.890Z,100.00
2023-04-06T00:54:10.719Z,100.00
2023-04-06T00:56:38.910Z,100.00
2023-04-06T00:59:07.493Z,100.00
2023-04-06T01:01:36.003Z,100.00
2023-04-06T01:04:05.207Z,100.00
2023-04-06T01:06:33.581Z,100.00
2023-04-06T01:09:03.608Z,100.00
2023-04-06T01:11:32.698Z,100.00
2023-04-06T01:14:02.998Z,100.00
2023-04-06T01:16:31.717Z,100.00
2023-04-06T01:19:00.328Z,100.00
2023-04-06T01:21:28.681Z,100.00
2023-04-06T01:23:58.356Z,100.00
2023-04-06T01:26:27.346Z,100.00
2023-04-06T01:28:55.580Z,100.00
2023-04-06T01:31:24.846Z,100.00
2023-04-06T01:33:53.456Z,100.00
2023-04-06T01:36:22.551Z,100.00
2023-04-06T01:38:50.973Z,100.00
2023-04-06T01:41:21.140Z,100.00
2023-04-06T01:43:50.214Z,100.00
2023-04-06T01:46:18.576Z,100.00
2023-04-06T01:48:46.806Z,100.00
2023-04-06T01:51:22.276Z,100.00
2023-04-06T01:53:50.889Z,100.00
2023-04-06T01:56:21.220Z,100.00
2023-04-06T01:58:49.572Z,100.00
2023-04-06T02:01:18.040Z,100.00
2023-04-06T02:03:46.389Z,100.00
2023-04-06T02:06:20.060Z,100.00
2023-04-06T02:08:51.370Z,100.00
2023-04-06T02:11:21.630Z,100.00
2023-04-06T02:13:51.374Z,100.00
2023-04-06T02:16:19.695Z,100.00
2023-04-06T02:18:52.000Z,100.00
2023-04-06T02:21:21.512Z,100.00
2023-04-06T02:23:50.564Z,100.00
2023-04-06T02:26:21.272Z,100.00
2023-04-06T02:28:50.102Z,100.00
2023-04-06T02:31:18.369Z,100.00
2023-04-06T02:33:46.685Z,100.00
2023-04-06T02:36:15.523Z,100.00
2023-04-06T02:38:43.833Z,100.00
2023-04-06T02:41:27.930Z,100.00
2023-04-06T02:43:56.662Z,100.00
2023-04-06T02:46:25.257Z,100.00
2023-04-06T02:48:54.023Z,100.00
2023-04-06T02:51:22.480Z,100.00
2023-04-06T02:53:50.694Z,100.00
2023-04-06T02:56:19.015Z,100.00
2023-04-06T02:58:48.844Z,100.00
2023-04-06T03:01:17.204Z,100.00
2023-04-06T03:03:46.997Z,100.00
2023-04-06T03:06:15.519Z,100.00
2023-04-06T03:08:43.770Z,100.00
2023-04-06T03:11:12.869Z,100.00
2023-04-06T03:13:41.684Z,100.00
2023-04-06T03:16:12.288Z,100.00
2023-04-06T03:18:40.574Z,100.00
2023-04-06T03:21:08.983Z,100.00
2023-04-06T03:23:37.256Z,100.00
2023-04-06T03:26:05.875Z,100.00
2023-04-06T03:28:34.159Z,100.00
2023-04-06T03:31:02.661Z,100.00
2023-04-06T03:33:32.407Z,100.00
2023-04-06T03:36:00.649Z,100.00
2023-04-06T03:38:29.413Z,100.00
2023-04-06T03:40:57.870Z,100.00
2023-04-06T03:43:29.763Z,100.00
2023-04-06T03:45:58.034Z,100.00
2023-04-06T03:48:28.618Z,100.00
2023-04-06T03:50:58.274Z,100.00
2023-04-06T03:53:26.614Z,100.00
2023-04-06T03:55:54.917Z,100.00
2023-04-06T03:58:32.110Z,100.00
2023-04-06T04:01:00.453Z,100.00
2023-04-06T04:03:29.293Z,100.00
2023-04-06T04:05:58.946Z,100.00
2023-04-06T04:08:27.421Z,100.00
2023-04-06T04:10:55.707Z,100.00
2023-04-06T04:13:50.735Z,100.00
2023-04-06T04:16:18.909Z,100.00
2023-04-06T04:18:49.250Z,100.00
2023-04-06T04:21:19.085Z,100.00
2023-04-06T04:23:47.501Z,100.00
2023-04-06T04:26:15.727Z,100.00
2023-04-06T04:28:46.762Z,100.00
2023-04-06T04:31:15.026Z,100.00
2023-04-06T04:33:43.285Z,100.00
2023-04-06T04:36:12.193Z,100.00
2023-04-06T04:38:41.794Z,100.00
2023-04-06T04:41:11.674Z,100.00
2023-04-06T04:43:40.046Z,100.00
2023-04-06T04:46:08.297Z,100.00
2023-04-06T04:48:37.700Z,100.00
2023-04-06T04:51:07.224Z,100.00
2023-04-06T04:53:35.603Z,100.00
2023-04-06T04:56:05.880Z,100.00
2023-04-06T04:58:34.072Z,100.00
2023-04-06T05:01:02.417Z,100.00
2023-04-06T05:03:30.965Z,100.00
2023-04-06T05:05:59.338Z,100.00
2023-04-06T05:08:27.950Z,100.00
2023-04-06T05:10:56.432Z,100.00
2023-04-06T05:13:26.628Z,100.00
2023-04-06T05:15:55.896Z,100.00
2023-04-06T05:18:27.396Z,100.00
2023-04-06T05:20:55.799Z,100.00
2023-04-06T05:23:24.076Z,100.00
2023-04-06T05:25:52.563Z,100.00
2023-04-06T05:28:21.187Z,100.00
2023-04-06T05:30:50.932Z,100.00
2023-04-06T05:33:20.112Z,100.00
2023-04-06T05:35:48.478Z,100.00
2023-04-06T05:38:16.627Z,100.00
2023-04-06T05:40:45.022Z,100.00
2023-04-06T05:43:13.396Z,100.00
2023-04-06T05:45:41.661Z,100.00
2023-04-06T05:48:11.428Z,100.00
2023-04-06T05:50:39.906Z,100.00
2023-04-06T05:53:08.138Z,100.00
2023-04-06T05:55:36.666Z,100.00
2023-04-06T05:58:04.947Z,100.00
2023-04-06T06:00:36.841Z,100.00
2023-04-06T06:03:07.293Z,100.00
2023-04-06T06:05:37.195Z,100.00
2023-04-06T06:08:05.479Z,100.00
2023-04-06T06:10:35.609Z,100.00
2023-04-06T06:13:03.774Z,100.00
2023-04-06T06:15:32.666Z,100.00
2023-04-06T06:18:01.511Z,100.00
2023-04-06T06:20:29.803Z,100.00
2023-04-06T06:22:59.699Z,100.00
2023-04-06T06:25:27.984Z,100.00
2023-04-06T06:27:56.246Z,100.00
2023-04-06T06:30:24.479Z,100.00
2023-04-06T06:32:52.819Z,100.00
2023-04-06T06:35:21.447Z,100.00
2023-04-06T06:37:49.743Z,100.00
2023-04-06T06:40:29.094Z,100.00
2023-04-06T06:42:57.352Z,100.00
2023-04-06T06:45:26.745Z,100.00
2023-04-06T06:47:55.750Z,99.39
2023-04-06T06:50:24.275Z,99.35
2023-04-06T06:52:52.450Z,99.06
2023-04-06T06:55:23.912Z,98.12
2023-04-06T06:57:52.072Z,98.25
2023-04-06T07:00:21.926Z,97.78
2023-04-06T07:02:50.843Z,97.23
2023-04-06T07:05:27.466Z,97.28
2023-04-06T07:07:57.502Z,96.21
2023-04-06T07:10:28.375Z,96.59
2023-04-06T07:12:57.235Z,96.45
2023-04-06T07:15:25.851Z,95.76
2023-04-06T07:17:55.811Z,95.86
2023-04-06T07:20:31.229Z,95.11
2023-04-06T07:22:59.731Z,94.82
2023-04-06T07:25:29.395Z,93.90
2023-04-06T07:27:57.692Z,93.03
2023-04-06T07:30:27.610Z,93.60
2023-04-06T07:32:56.715Z,93.43
2023-04-06T07:35:27.166Z,93.23
2023-04-06T07:37:55.703Z,92.10
2023-04-06T07:40:24.178Z,91.58
2023-04-06T07:42:54.866Z,90.11
2023-04-06T07:45:24.304Z,88.94
2023-04-06T07:47:52.684Z,88.15
2023-04-06T07:50:21.140Z,87.75
2023-04-06T07:52:49.637Z,87.59
2023-04-06T07:55:21.272Z,86.20
2023-04-06T07:57:49.479Z,86.14
2023-04-06T08:00:20.045Z,85.42
2023-04-06T08:02:48.549Z,85.15
2023-04-06T08:05:19.577Z,85.84
2023-04-06T08:07:49.841Z,85.98
2023-04-06T08:10:18.245Z,85.22
2023-04-06T08:12:46.504Z,84.55
2023-04-06T08:15:16.124Z,85.16
2023-04-06T08:17:45.876Z,84.27
2023-04-06T08:20:14.517Z,85.09
2023-04-06T08:22:43.856Z,82.23
2023-04-06T08:25:14.457Z,83.38
2023-04-06T08:27:42.723Z,82.55
2023-04-06T08:30:17.208Z,82.70
2023-04-06T08:32:47.327Z,83.25
2023-04-06T08:35:15.664Z,82.53
2023-04-06T08:37:43.977Z,80.12
2023-04-06T08:40:13.444Z,79.28
2023-04-06T08:42:43.393Z,78.38
2023-04-06T08:45:12.382Z,78.59
2023-04-06T08:47:41.199Z,79.59
2023-04-06T08:50:13.905Z,78.86
2023-04-06T08:52:44.775Z,78.07
2023-04-06T08:55:13.005Z,78.36
2023-04-06T08:57:42.164Z,78.22
2023-04-06T09:00:14.027Z,78.72
2023-04-06T09:02:44.818Z,78.94
2023-04-06T09:05:16.503Z,78.64
2023-04-06T09:07:44.759Z,78.06
2023-04-06T09:10:13.864Z,78.40
2023-04-06T09:12:42.796Z,77.50
2023-04-06T09:15:24.345Z,77.35
2023-04-06T09:17:55.783Z,76.75
2023-04-06T09:20:28.753Z,76.06
2023-04-06T09:22:57.679Z,76.30
2023-04-06T09:25:29.535Z,76.49
2023-04-06T09:28:02.171Z,75.55
2023-04-06T09:30:30.782Z,76.41
2023-04-06T09:33:00.581Z,75.68
2023-04-06T09:35:33.468Z,75.63
2023-04-06T09:38:01.743Z,75.36
2023-04-06T09:40:30.364Z,73.33
2023-04-06T09:43:00.551Z,72.99
2023-04-06T09:45:31.887Z,73.04
2023-04-06T09:48:01.002Z,70.23
2023-04-06T09:50:34.807Z,70.61
2023-04-06T09:53:04.144Z,69.05
2023-04-06T09:55:35.283Z,69.90
2023-04-06T09:58:08.299Z,70.26
2023-04-06T10:00:45.263Z,69.12
2023-04-06T10:03:26.216Z,70.00
2023-04-06T10:05:59.680Z,69.77
2023-04-06T10:08:32.710Z,70.43
2023-04-06T10:11:01.900Z,70.86
2023-04-06T10:13:30.490Z,71.25
2023-04-06T10:15:59.918Z,70.79
2023-04-06T10:18:28.889Z,70.26
2023-04-06T10:21:07.056Z,70.86
2023-04-06T10:23:38.551Z,70.52
2023-04-06T10:26:06.862Z,71.32
2023-04-06T10:28:37.045Z,70.78
2023-04-06T10:31:08.635Z,71.41
2023-04-06T10:33:37.159Z,72.17
2023-04-06T10:36:17.478Z,71.74
2023-04-06T10:38:46.457Z,71.83
2023-04-06T10:41:15.158Z,71.49
2023-04-06T10:43:43.977Z,71.13
2023-04-06T10:46:15.098Z,72.31
2023-04-06T10:48:44.662Z,72.77
2023-04-06T10:51:14.328Z,73.02
2023-04-06T10:53:46.475Z,72.22
2023-04-06T10:56:16.128Z,72.44
2023-04-06T10:58:47.968Z,71.83
2023-04-06T11:01:17.665Z,71.53
2023-04-06T11:03:47.392Z,71.88
2023-04-06T11:06:22.607Z,70.99
2023-04-06T11:08:53.168Z,71.74
2023-04-06T11:11:23.088Z,70.15
2023-04-06T11:14:14.839Z,70.78
2023-04-06T11:16:43.133Z,70.07
2023-04-06T11:19:15.309Z,70.24
2023-04-06T11:21:47.765Z,70.14
2023-04-06T11:24:19.970Z,69.69
2023-04-06T11:26:50.034Z,68.42
2023-04-06T11:29:19.915Z,66.63
2023-04-06T11:31:49.925Z,67.23
2023-04-06T11:34:20.328Z,67.02
2023-04-06T11:36:51.139Z,67.38
2023-04-06T11:39:23.183Z,66.54
2023-04-06T11:41:51.794Z,65.08
2023-04-06T11:44:34.180Z,65.31
2023-04-06T11:47:10.176Z,66.32
2023-04-06T11:49:41.365Z,67.25
2023-04-06T11:52:17.889Z,65.91
2023-04-06T11:54:48.313Z,66.70
2023-04-06T11:57:17.924Z,66.94
2023-04-06T11:59:47.135Z,66.84
2023-04-06T12:02:18.856Z,66.48
2023-04-06T12:04:47.928Z,66.39
2023-04-06T12:07:16.253Z,66.43
2023-04-06T12:09:45.604Z,65.55
2023-04-06T12:12:15.522Z,66.19
2023-04-06T12:14:44.924Z,66.11
2023-04-06T12:17:13.297Z,65.90
2023-04-06T12:19:42.085Z,67.13
2023-04-06T12:22:11.264Z,66.56
2023-04-06T12:24:39.667Z,67.08
2023-04-06T12:27:10.955Z,66.75
2023-04-06T12:29:41.064Z,67.42
2023-04-06T12:32:09.744Z,66.90
2023-04-06T12:34:37.896Z,67.31
2023-04-06T12:37:06.354Z,67.13
2023-04-06T12:39:34.718Z,68.17
2023-04-06T12:42:04.114Z,68.39
2023-04-06T12:44:32.559Z,67.63
2023-04-06T12:47:04.341Z,67.13
2023-04-06T12:49:33.128Z,67.08
2023-04-06T12:52:01.886Z,66.98
2023-04-06T12:54:30.227Z,67.31
2023-04-06T12:56:58.965Z,66.09
2023-04-06T12:59:27.778Z,66.25
2023-04-06T13:02:21.445Z,65.96
2023-04-06T13:04:50.736Z,66.20
2023-04-06T13:07:19.816Z,65.99
2023-04-06T13:09:48.632Z,66.36
2023-04-06T13:12:17.011Z,66.19
2023-04-06T13:14:45.584Z,66.10
2023-04-06T13:17:17.909Z,66.32
2023-04-06T13:19:47.553Z,66.60
2023-04-06T13:22:16.866Z,67.03
2023-04-06T13:24:45.262Z,67.19
2023-04-06T13:27:13.797Z,66.86
2023-04-06T13:29:42.042Z,67.58
2023-04-06T13:32:11.469Z,66.52
2023-04-06T13:34:40.022Z,66.57
2023-04-06T13:37:09.700Z,65.61
2023-04-06T13:39:39.076Z,66.41
2023-04-06T13:42:07.823Z,66.75
2023-04-06T13:44:35.959Z,67.13
2023-04-06T13:47:04.256Z,67.01
2023-04-06T13:49:35.556Z,66.99
2023-04-06T13:52:04.046Z,67.23
2023-04-06T13:54:33.602Z,68.15
2023-04-06T13:57:02.140Z,68.20
2023-04-06T13:59:34.989Z,67.72
2023-04-06T14:02:03.747Z,68.15
2023-04-06T14:04:34.109Z,69.61
2023-04-06T14:07:03.191Z,70.31
2023-04-06T14:09:33.258Z,70.57
2023-04-06T14:12:02.386Z,69.82
2023-04-06T14:14:30.712Z,69.79
2023-04-06T14:16:58.919Z,69.84
2023-04-06T14:19:27.398Z,69.19
2023-04-06T14:21:55.712Z,69.15
2023-04-06T14:24:23.977Z,67.50
2023-04-06T14:26:53.789Z,68.62
2023-04-06T14:29:22.096Z,68.83
2023-04-06T14:31:51.246Z,69.06
2023-04-06T14:34:19.577Z,68.85
2023-04-06T14:36:47.922Z,69.03
2023-04-06T14:39:16.164Z,68.68
2023-04-06T14:41:44.465Z,68.90
2023-04-06T14:44:14.534Z,69.17
2023-04-06T14:46:43.262Z,67.14
2023-04-06T14:49:11.826Z,68.31
2023-04-06T14:51:40.202Z,67.74
2023-04-06T14:54:08.503Z,67.87
2023-04-06T14:56:38.908Z,67.55
2023-04-06T14:59:07.094Z,68.31
2023-04-06T15:01:38.186Z,67.43
2023-04-06T15:04:07.055Z,66.84
2023-04-06T15:06:35.482Z,67.18
2023-04-06T15:09:08.847Z,67.36
2023-04-06T15:11:37.118Z,66.97
2023-04-06T15:14:06.786Z,66.76
2023-04-06T15:16:35.030Z,66.36
2023-04-06T15:19:04.802Z,66.19
2023-04-06T15:21:36.225Z,66.38
2023-04-06T15:24:07.422Z,66.56
2023-04-06T15:26:35.598Z,66.35
2023-04-06T15:29:04.232Z,66.15
2023-04-06T15:31:38.090Z,65.99
2023-04-06T15:34:09.513Z,65.98
2023-04-06T15:36:38.143Z,66.68
2023-04-06T15:39:09.648Z,65.33
2023-04-06T15:41:38.170Z,65.84
2023-04-06T15:44:07.388Z,65.82
2023-04-06T15:46:35.617Z,65.28
2023-04-06T15:49:03.912Z,63.31
2023-04-06T15:51:33.680Z,60.17
2023-04-06T15:54:14.623Z,55.96
2023-04-06T15:56:42.951Z,51.25
2023-04-06T15:59:15.358Z,47.49
2023-04-06T16:01:43.788Z,44.96
2023-04-06T16:04:12.967Z,43.45
2023-04-06T16:06:42.961Z,42.89
2023-04-06T16:09:16.281Z,42.14
2023-04-06T16:11:44.832Z,41.71
2023-04-06T16:14:14.086Z,42.56
2023-04-06T16:16:43.638Z,42.69
2023-04-06T16:19:12.009Z,41.62
2023-04-06T16:21:40.252Z,42.99
2023-04-06T16:24:09.939Z,42.90
2023-04-06T16:26:38.241Z,42.73
2023-04-06T16:29:06.442Z,43.04
2023-04-06T16:31:35.219Z,42.90
2023-04-06T16:34:03.485Z,43.12
2023-04-06T16:36:33.894Z,43.03
2023-04-06T16:39:03.743Z,42.19
2023-04-06T16:41:36.076Z,43.09
2023-04-06T16:44:04.529Z,42.41
2023-04-06T16:46:33.280Z,43.07
2023-04-06T16:49:02.083Z,43.33
2023-04-06T16:51:32.242Z,43.98
2023-04-06T16:54:00.644Z,44.25
2023-04-06T16:56:29.053Z,44.51
2023-04-06T16:58:58.725Z,44.57
2023-04-06T17:01:31.180Z,44.70
2023-04-06T17:03:59.601Z,45.55
2023-04-06T17:06:28.430Z,47.76
2023-04-06T17:08:59.955Z,49.85
2023-04-06T17:11:39.423Z,51.23
2023-04-06T17:14:16.301Z,53.42
2023-04-06T17:16:44.562Z,55.37
2023-04-06T17:19:12.835Z,57.49
2023-04-06T17:21:41.878Z,58.16
2023-04-06T17:24:11.358Z,60.32
2023-04-06T17:26:40.503Z,61.63
2023-04-06T17:29:08.842Z,62.31
2023-04-06T17:31:46.916Z,63.58
2023-04-06T17:34:15.704Z,64.27
2023-04-06T17:36:43.909Z,66.33
2023-04-06T17:39:12.903Z,67.07
2023-04-06T17:41:41.413Z,67.54
2023-04-06T17:44:09.672Z,68.66
2023-04-06T17:46:39.970Z,70.47
2023-04-06T17:49:09.557Z,72.30
2023-04-06T17:51:39.124Z,73.52
2023-04-06T17:54:07.382Z,75.33
2023-04-06T17:56:35.591Z,76.93
2023-04-06T17:59:08.108Z,78.69
2023-04-06T18:01:36.671Z,79.56
2023-04-06T18:04:06.389Z,80.54
2023-04-06T18:06:34.866Z,81.36
2023-04-06T18:09:04.713Z,81.60
2023-04-06T18:11:32.911Z,82.26
2023-04-06T18:14:03.124Z,82.57
2023-04-06T18:18:59.924Z,82.90
2023-04-06T18:21:29.600Z,83.05
2023-04-06T18:24:00.036Z,83.37
2023-04-06T18:26:31.079Z,83.71
2023-04-06T18:29:02.086Z,83.62
2023-04-06T18:31:30.862Z,83.78
2023-04-06T18:33:59.409Z,83.93
2023-04-06T18:36:37.320Z,84.36
2023-04-06T18:39:05.710Z,84.85
2023-04-06T18:41:34.421Z,85.30
2023-04-06T18:44:02.729Z,85.12
2023-04-06T18:46:31.005Z,86.05
2023-04-06T18:49:00.980Z,86.23
2023-04-06T18:51:32.793Z,85.95
2023-04-06T18:54:03.193Z,86.68
2023-04-06T18:56:31.536Z,87.07
2023-04-06T18:58:59.772Z,87.23
2023-04-06T19:01:33.127Z,87.26
2023-04-06T19:04:01.879Z,87.36
2023-04-06T19:06:33.108Z,87.82
2023-04-06T19:09:01.397Z,88.32
2023-04-06T19:11:29.956Z,88.24
2023-04-06T19:13:58.409Z,88.93
2023-04-06T19:16:27.627Z,88.33
2023-04-06T19:19:00.100Z,88.94
2023-04-06T19:21:28.505Z,88.79
2023-04-06T19:23:58.747Z,88.87
2023-04-06T19:26:28.234Z,89.55
2023-04-06T19:28:58.350Z,90.07
2023-04-06T19:31:28.112Z,90.20
2023-04-06T19:33:56.944Z,90.94
2023-04-06T19:36:28.532Z,90.68
2023-04-06T19:39:07.528Z,90.54
2023-04-06T19:41:35.966Z,90.96
2023-04-06T19:44:04.188Z,91.16
2023-04-06T19:46:32.920Z,91.14
2023-04-06T19:49:02.548Z,91.20
2023-04-06T19:51:33.607Z,92.32
2023-04-06T19:54:03.509Z,91.91
2023-04-06T19:56:32.550Z,92.71
2023-04-06T19:59:01.225Z,93.61
2023-04-06T20:01:29.644Z,93.49
2023-04-06T20:03:58.020Z,93.06
2023-04-06T20:06:26.981Z,93.82
2023-04-06T20:08:55.319Z,93.72
2023-04-06T20:11:26.972Z,94.32
2023-04-06T20:13:56.326Z,94.13
2023-04-06T20:16:24.871Z,94.02
2023-04-06T20:18:53.187Z,94.61
2023-04-06T20:21:21.641Z,94.31
2023-04-06T20:23:50.120Z,94.63
2023-04-06T20:26:18.322Z,95.47
2023-04-06T20:28:48.743Z,95.40
2023-04-06T20:31:16.988Z,95.29
2023-04-06T20:33:45.413Z,95.69
2023-04-06T20:36:13.793Z,95.75
2023-04-06T20:38:42.025Z,95.20
2023-04-06T20:41:10.440Z,95.82
2023-04-06T20:43:38.939Z,96.63
2023-04-06T20:46:16.284Z,96.53
2023-04-06T20:48:44.646Z,96.54
2023-04-06T20:51:20.630Z,96.30
2023-04-06T20:53:49.044Z,96.66
2023-04-06T20:56:17.220Z,95.96
2023-04-06T20:58:45.555Z,97.13
2023-04-06T21:01:17.152Z,95.91
2023-04-06T21:03:46.183Z,96.76
2023-04-06T21:06:17.974Z,96.13
2023-04-06T21:08:46.329Z,96.77
2023-04-06T21:11:14.672Z,96.57
2023-04-06T21:13:44.605Z,96.36
2023-04-06T21:16:12.899Z,97.27
2023-04-06T21:18:42.821Z,98.22
2023-04-06T21:21:11.120Z,98.89
2023-04-06T21:23:39.391Z,99.67
2023-04-06T21:26:08.201Z,100.00
2023-04-06T21:28:36.399Z,99.68
2023-04-06T21:31:08.924Z,99.39
2023-04-06T21:33:37.177Z,99.17
2023-04-06T21:36:08.564Z,99.31
2023-04-06T21:38:36.940Z,99.40
2023-04-06T21:41:05.338Z,100.00
2023-04-06T21:43:33.527Z,99.48
2023-04-06T21:46:02.133Z,100.00
2023-04-06T21:48:30.348Z,100.00
2023-04-06T21:51:17.210Z,100.00
2023-04-06T21:53:47.116Z,100.00
2023-04-06T21:56:20.613Z,100.00
2023-04-06T21:58:48.876Z,100.00
2023-04-06T22:01:17.875Z,100.00
2023-04-06T22:03:47.659Z,100.00
2023-04-06T22:06:19.265Z,100.00
2023-04-06T22:08:49.384Z,100.00
2023-04-06T22:11:19.050Z,100.00
2023-04-06T22:13:48.088Z,100.00
2023-04-06T22:16:18.789Z,100.00
2023-04-06T22:18:47.103Z,100.00
2023-04-06T22:21:15.808Z,100.00
2023-04-06T22:23:44.281Z,100.00
2023-04-06T22:26:14.289Z,100.00
2023-04-06T22:28:43.004Z,100.00
2023-04-06T22:31:11.188Z,100.00
2023-04-06T22:33:39.429Z,100.00
2023-04-06T22:36:10.620Z,100.00
2023-04-06T22:38:38.933Z,100.00
2023-04-06T22:41:08.578Z,100.00
2023-04-06T22:43:38.438Z,100.00
2023-04-06T22:46:06.986Z,100.00
2023-04-06T22:48:35.227Z,100.00
2023-04-06T22:51:03.886Z,100.00
2023-04-06T22:53:37.822Z,100.00
2023-04-06T22:56:06.787Z,100.00
2023-04-06T22:58:35.010Z,100.00
2023-04-06T23:01:04.710Z,100.00
2023-04-06T23:03:33.015Z,100.00
2023-04-06T23:06:01.341Z,100.00
2023-04-06T23:08:29.586Z,100.00
2023-04-06T23:10:57.797Z,100.00
2023-04-06T23:13:27.084Z,100.00
2023-04-06T23:15:55.350Z,100.00
2023-04-06T23:18:25.386Z,100.00
2023-04-06T23:20:53.697Z,100.00
2023-04-06T23:23:21.942Z,100.00
2023-04-06T23:25:50.364Z,100.00
2023-04-06T23:28:18.589Z,100.00
2023-04-06T23:30:46.818Z,100.00
2023-04-06T23:33:15.787Z,100.00
2023-04-06T23:35:45.395Z,100.00
2023-04-06T23:38:13.627Z,100.00
2023-04-06T23:40:42.010Z,100.00
2023-04-06T23:43:10.778Z,100.00
2023-04-06T23:45:41.743Z,100.00
2023-04-06T23:48:10.549Z,100.00
2023-04-06T23:50:39.167Z,100.00
2023-04-06T23:53:11.092Z,100.00
2023-04-06T23:55:39.376Z,100.00
2023-04-06T23:58:08.039Z,100.00
